Time;durP1;ratioP1;P1;durP2;ratioP2;P2;SDS_P1;SDS_P2;PMS_P1;PMS_P2;Temp;Humidity;BMP_temperature;BMP_pressure;BME280_temperature;BME280_humidity;BME280_pressure;Samples;Min_cycle;Max_cycle;Signal;HPM_P1;HPM_P2
2020/12/11 00:01:43;;;;;;;1.70;1.50;;;1.80;98.20;;;;;;5037249;28;20464;-78
2020/12/11 00:04:09;;;;;;;1.70;1.60;;;1.80;98.20;;;;;;5037608;28;20490;-78
2020/12/11 00:06:36;;;;;;;1.77;1.67;;;1.80;98.20;;;;;;5036235;28;20899;-77
2020/12/11 00:09:03;;;;;;;1.60;1.50;;;1.80;98.20;;;;;;5045859;28;20494;-78
2020/12/11 00:11:30;;;;;;;1.73;1.63;;;1.80;98.20;;;;;;5043687;28;20459;-78
2020/12/11 00:13:56;;;;;;;1.70;1.60;;;1.80;98.20;;;;;;5037569;28;20522;-77
2020/12/11 00:16:24;;;;;;;1.70;1.60;;;1.80;98.20;;;;;;5036186;28;20498;-77
2020/12/11 00:18:51;;;;;;;1.87;1.77;;;1.80;98.20;;;;;;5036937;28;20471;-78
2020/12/11 00:21:17;;;;;;;1.60;1.50;;;1.80;98.20;;;;;;5037192;28;20460;-77
2020/12/11 00:23:44;;;;;;;1.67;1.50;;;1.80;98.20;;;;;;5037014;28;20855;-77
2020/12/11 00:26:11;;;;;;;2.00;1.87;;;1.80;98.20;;;;;;5035383;28;20789;-78
2020/12/11 00:28:37;;;;;;;1.80;1.70;;;1.80;98.20;;;;;;5036694;28;20456;-78
2020/12/11 00:31:04;;;;;;;1.70;1.60;;;1.80;98.20;;;;;;5036199;28;20471;-77
2020/12/11 00:33:31;;;;;;;1.70;1.53;;;1.80;98.20;;;;;;5032140;28;20459;-77
2020/12/11 00:35:57;;;;;;;1.70;1.60;;;1.80;98.20;;;;;;5035653;28;20455;-77
2020/12/11 00:38:24;;;;;;;1.77;1.67;;;1.90;98.20;;;;;;5043201;28;20693;-78
2020/12/11 00:40:50;;;;;;;4.47;4.10;;;1.90;98.20;;;;;;5039161;28;20459;-78
2020/12/11 00:43:17;;;;;;;2.20;2.00;;;1.90;98.20;;;;;;5036537;28;20991;-78
2020/12/11 00:45:43;;;;;;;1.67;1.50;;;1.90;98.20;;;;;;5035929;28;20511;-78
2020/12/11 00:48:09;;;;;;;1.80;1.70;;;1.90;98.20;;;;;;5038166;28;20456;-78
2020/12/11 00:50:37;;;;;;;1.70;1.50;;;1.90;98.20;;;;;;5037780;28;20644;-78
2020/12/11 00:53:03;;;;;;;1.70;1.60;;;1.90;98.20;;;;;;5035259;28;20537;-78
2020/12/11 00:55:29;;;;;;;1.90;1.80;;;1.90;98.20;;;;;;5036294;28;20486;-78
2020/12/11 00:57:56;;;;;;;1.70;1.50;;;1.90;98.20;;;;;;5045608;28;20486;-78
2020/12/11 01:00:22;;;;;;;2.93;2.73;;;2.00;98.20;;;;;;5036979;28;20459;-77
2020/12/11 01:02:49;;;;;;;1.63;1.50;;;2.00;98.20;;;;;;5036386;28;20522;-77
2020/12/11 01:05:15;;;;;;;1.63;1.50;;;2.00;98.20;;;;;;5035769;28;20479;-78
2020/12/11 01:07:42;;;;;;;1.77;1.67;;;2.00;98.20;;;;;;5035086;28;21018;-76
2020/12/11 01:10:09;;;;;;;1.80;1.70;;;2.00;98.20;;;;;;5048734;28;20553;-78
2020/12/11 01:12:35;;;;;;;1.80;1.70;;;2.00;98.20;;;;;;5038248;28;20550;-78
2020/12/11 01:15:02;;;;;;;1.73;1.63;;;2.00;98.20;;;;;;5036648;28;20530;-77
2020/12/11 01:17:28;;;;;;;1.73;1.63;;;2.00;98.20;;;;;;5033455;28;20492;-77
2020/12/11 01:19:55;;;;;;;1.70;1.60;;;2.00;98.20;;;;;;5035679;28;20777;-78
2020/12/11 01:22:21;;;;;;;1.60;1.50;;;2.00;98.20;;;;;;5036209;28;20488;-78
2020/12/11 01:24:48;;;;;;;5.73;2.83;;;2.00;98.20;;;;;;5042812;28;20487;-78
2020/12/11 01:27:15;;;;;;;1.63;1.40;;;2.00;98.20;;;;;;5038162;28;21042;-78
2020/12/11 01:29:41;;;;;;;1.67;1.50;;;2.00;98.20;;;;;;5035710;28;20498;-78
2020/12/11 01:32:07;;;;;;;1.67;1.57;;;2.00;98.20;;;;;;5032611;28;20491;-78
2020/12/11 01:34:34;;;;;;;1.70;1.60;;;2.00;98.20;;;;;;5034115;28;20543;-78
2020/12/11 01:37:04;;;;;;;1.77;1.67;;;2.00;98.20;;;;;;5034501;28;20495;-78
2020/12/11 01:39:30;;;;;;;1.67;1.50;;;2.00;98.20;;;;;;5034860;28;20531;-78
2020/12/11 01:42:00;;;;;;;1.73;1.63;;;2.00;98.20;;;;;;5032887;28;20503;-77
2020/12/11 01:44:27;;;;;;;1.67;1.50;;;2.00;98.20;;;;;;5033537;28;20476;-77
2020/12/11 01:46:57;;;;;;;1.70;1.60;;;2.00;98.20;;;;;;5034900;28;20488;-77
2020/12/11 01:49:24;;;;;;;1.70;1.60;;;2.00;98.20;;;;;;5034819;28;20744;-78
2020/12/11 01:51:51;;;;;;;1.73;1.63;;;2.00;98.20;;;;;;5040341;28;20811;-77
2020/12/11 01:54:17;;;;;;;1.80;1.70;;;2.00;98.20;;;;;;5042607;28;20487;-77
2020/12/11 01:56:49;;;;;;;1.70;1.50;;;2.00;98.20;;;;;;5033859;28;20491;-78
2020/12/11 01:59:23;;;;;;;1.73;1.63;;;2.00;98.20;;;;;;5034131;28;20494;-77
2020/12/11 02:01:54;;;;;;;1.67;1.50;;;2.00;98.20;;;;;;5031513;28;20488;-78
2020/12/11 02:04:21;;;;;;;1.70;1.60;;;2.00;98.20;;;;;;5034681;28;20490;-78
2020/12/11 02:06:49;;;;;;;1.80;1.70;;;2.00;98.20;;;;;;5033051;28;20488;-78
2020/12/11 02:09:16;;;;;;;1.70;1.57;;;2.00;98.20;;;;;;5033295;28;20456;-77
2020/12/11 02:11:43;;;;;;;1.67;1.50;;;2.00;98.20;;;;;;5033318;28;20515;-78
2020/12/11 02:14:09;;;;;;;1.70;1.50;;;2.00;98.20;;;;;;5033515;28;20515;-77
2020/12/11 02:16:36;;;;;;;1.90;1.80;;;2.00;98.20;;;;;;5040361;28;20869;-78
2020/12/11 02:19:03;;;;;;;1.90;1.80;;;2.00;98.20;;;;;;5039512;28;20488;-78
2020/12/11 02:21:32;;;;;;;1.80;1.70;;;2.00;98.20;;;;;;5036882;28;20510;-77
2020/12/11 02:23:58;;;;;;;1.73;1.63;;;2.00;98.20;;;;;;5033872;28;20482;-78
2020/12/11 02:26:25;;;;;;;3.03;2.83;;;2.00;98.20;;;;;;5032811;28;20519;-78
2020/12/11 02:28:51;;;;;;;1.67;1.57;;;2.00;98.20;;;;;;5033938;28;20495;-78
2020/12/11 02:31:18;;;;;;;1.60;1.40;;;2.00;98.20;;;;;;5032396;28;20495;-77
2020/12/11 02:33:44;;;;;;;1.83;1.73;;;2.00;98.20;;;;;;5032987;28;20460;-78
2020/12/11 02:36:10;;;;;;;1.67;1.50;;;2.00;98.20;;;;;;5033731;28;20491;-78
2020/12/11 02:38:38;;;;;;;1.70;1.57;;;2.00;98.20;;;;;;5035763;28;21018;-78
2020/12/11 02:41:08;;;;;;;3.50;3.30;;;2.00;98.20;;;;;;5035425;28;20549;-79
2020/12/11 02:43:37;;;;;;;1.70;1.60;;;2.00;98.20;;;;;;5035110;28;20531;-79
2020/12/11 02:46:04;;;;;;;1.70;1.57;;;1.90;98.20;;;;;;5041488;28;20484;-78
2020/12/11 02:48:31;;;;;;;1.83;1.73;;;1.90;98.20;;;;;;5040625;28;20838;-75
2020/12/11 02:50:58;;;;;;;1.70;1.57;;;1.90;98.20;;;;;;5033086;28;20835;-78
2020/12/11 02:53:24;;;;;;;1.70;1.57;;;1.90;98.20;;;;;;5036373;28;20577;-79
2020/12/11 02:55:52;;;;;;;1.70;1.50;;;1.90;98.20;;;;;;5052967;23;20526;-72
2020/12/11 02:58:18;;;;;;;1.80;1.70;;;1.90;98.20;;;;;;5043874;28;20512;-72
2020/12/11 03:00:45;;;;;;;1.70;1.60;;;1.90;98.20;;;;;;5037641;28;20558;-72
2020/12/11 03:03:11;;;;;;;1.70;1.50;;;1.90;98.20;;;;;;5037571;28;20456;-72
2020/12/11 03:05:38;;;;;;;1.70;1.60;;;1.90;98.20;;;;;;5044598;28;20741;-73
2020/12/11 03:08:04;;;;;;;1.80;1.70;;;1.90;98.20;;;;;;5032649;28;20563;-72
2020/12/11 03:10:30;;;;;;;1.80;1.70;;;1.90;98.20;;;;;;5035688;28;20526;-72
2020/12/11 03:12:58;;;;;;;1.80;1.70;;;1.80;98.20;;;;;;5037121;28;20554;-71
2020/12/11 03:15:24;;;;;;;2.10;1.93;;;1.80;98.20;;;;;;5044526;28;20573;-70
2020/12/11 03:17:50;;;;;;;1.93;1.73;;;1.90;98.20;;;;;;5048764;28;20974;-71
2020/12/11 03:20:22;;;;;;;1.70;1.60;;;1.90;98.20;;;;;;5037806;28;20545;-72
2020/12/11 03:22:53;;;;;;;2.20;2.00;;;1.90;98.20;;;;;;5038539;28;20490;-74
2020/12/11 03:25:20;;;;;;;1.70;1.60;;;1.80;98.20;;;;;;5035589;28;20514;-72
2020/12/11 03:27:46;;;;;;;3.00;2.80;;;1.80;98.20;;;;;;5032165;28;20515;-72
2020/12/11 03:30:14;;;;;;;1.70;1.60;;;1.80;98.20;;;;;;5039062;28;20553;-72
2020/12/11 03:32:40;;;;;;;1.80;1.70;;;1.80;98.20;;;;;;5039804;28;21038;-73
2020/12/11 03:35:07;;;;;;;1.70;1.60;;;1.80;98.20;;;;;;5031121;28;20577;-73
2020/12/11 03:37:34;;;;;;;2.47;2.27;;;1.80;98.20;;;;;;5031448;28;20551;-72
2020/12/11 03:40:00;;;;;;;1.60;1.50;;;1.80;98.20;;;;;;5040570;28;20991;-72
2020/12/11 03:42:27;;;;;;;1.70;1.60;;;1.80;98.20;;;;;;5034057;28;20454;-72
2020/12/11 03:44:53;;;;;;;1.60;1.50;;;1.80;98.20;;;;;;5041224;28;20509;-73
2020/12/11 03:47:20;;;;;;;1.87;1.77;;;1.80;98.20;;;;;;5049371;28;20564;-72
2020/12/11 03:49:47;;;;;;;1.70;1.60;;;1.80;98.20;;;;;;5040940;28;21009;-73
2020/12/11 03:52:13;;;;;;;1.63;1.50;;;1.90;98.20;;;;;;5036842;28;20491;-73
2020/12/11 03:54:39;;;;;;;1.67;1.50;;;1.90;98.20;;;;;;5032824;28;20599;-72
2020/12/11 03:57:06;;;;;;;1.60;1.50;;;1.90;98.20;;;;;;5037221;28;20550;-71
2020/12/11 03:59:32;;;;;;;1.63;1.50;;;1.90;98.20;;;;;;5035041;28;20456;-72
2020/12/11 04:01:59;;;;;;;1.70;1.50;;;1.90;98.20;;;;;;5035005;28;20491;-72
2020/12/11 04:04:26;;;;;;;1.80;1.70;;;1.90;98.20;;;;;;5037078;28;21053;-72
2020/12/11 04:06:52;;;;;;;1.90;1.80;;;1.90;98.20;;;;;;5036959;28;20484;-73
2020/12/11 04:09:19;;;;;;;1.70;1.60;;;1.90;98.20;;;;;;5034134;28;20542;-72
2020/12/11 04:11:45;;;;;;;3.30;3.10;;;1.90;98.20;;;;;;5029123;28;20463;-73
2020/12/11 04:14:12;;;;;;;1.70;1.60;;;1.90;98.20;;;;;;5037709;28;20912;-72
2020/12/11 04:16:38;;;;;;;1.80;1.70;;;1.90;98.20;;;;;;5047290;28;20449;-72
2020/12/11 04:19:05;;;;;;;1.90;1.80;;;1.90;98.20;;;;;;5036550;28;20468;-72
2020/12/11 04:21:32;;;;;;;1.70;1.60;;;1.90;98.20;;;;;;5030774;28;21152;-72
2020/12/11 04:23:58;;;;;;;1.87;1.77;;;1.90;98.20;;;;;;5038686;28;20542;-72
2020/12/11 04:26:25;;;;;;;1.70;1.60;;;1.90;98.20;;;;;;5041858;28;20924;-71
2020/12/11 04:28:51;;;;;;;1.70;1.50;;;1.90;98.20;;;;;;5049966;28;20472;-71
2020/12/11 04:31:19;;;;;;;1.80;1.70;;;1.90;98.20;;;;;;5048663;28;21034;-71
2020/12/11 04:33:46;;;;;;;1.77;1.67;;;1.90;98.20;;;;;;5041304;28;20455;-72
2020/12/11 04:36:17;;;;;;;1.90;1.80;;;1.90;98.20;;;;;;5035832;28;20474;-73
2020/12/11 04:38:46;;;;;;;1.70;1.50;;;1.90;98.20;;;;;;5032527;28;20859;-73
2020/12/11 04:41:14;;;;;;;1.80;1.70;;;1.90;98.20;;;;;;5039492;28;20462;-73
2020/12/11 04:43:41;;;;;;;1.70;1.60;;;1.90;98.20;;;;;;5050569;28;20508;-72
2020/12/11 04:46:08;;;;;;;1.83;1.73;;;1.90;98.20;;;;;;5050225;28;20573;-73
2020/12/11 04:48:34;;;;;;;1.60;1.50;;;1.90;98.20;;;;;;5044012;28;20566;-72
2020/12/11 04:51:02;;;;;;;2.33;2.13;;;1.90;98.20;;;;;;5047950;28;20541;-73
2020/12/11 04:53:34;;;;;;;1.70;1.60;;;1.90;98.20;;;;;;5046367;28;20615;-72
2020/12/11 04:56:04;;;;;;;1.70;1.60;;;1.90;98.20;;;;;;5035955;28;20486;-72
2020/12/11 04:58:32;;;;;;;2.00;1.90;;;1.90;98.20;;;;;;5039463;28;20463;-73
2020/12/11 05:01:02;;;;;;;2.20;2.00;;;1.90;98.20;;;;;;5034992;28;20528;-72
2020/12/11 05:03:33;;;;;;;1.70;1.60;;;1.90;98.20;;;;;;5040318;28;20964;-72
2020/12/11 05:06:00;;;;;;;1.80;1.70;;;1.90;98.20;;;;;;5039894;28;20857;-73
2020/12/11 05:08:27;;;;;;;2.50;2.30;;;1.90;98.20;;;;;;5040150;28;20455;-71
2020/12/11 05:10:54;;;;;;;1.60;1.47;;;1.80;98.20;;;;;;5036798;28;20499;-71
2020/12/11 05:13:22;;;;;;;1.60;1.40;;;1.80;98.20;;;;;;5039560;28;20492;-72
2020/12/11 05:16:07;;;;;;;1.80;1.70;;;1.80;98.20;;;;;;5037209;28;20932;-72
2020/12/11 05:18:33;;;;;;;1.70;1.60;;;1.80;98.20;;;;;;5036196;28;20458;-72
2020/12/11 05:21:14;;;;;;;1.70;1.60;;;1.90;98.20;;;;;;5046332;28;20546;-72
2020/12/11 05:23:54;;;;;;;1.70;1.60;;;1.90;98.20;;;;;;5033784;28;20462;-72
2020/12/11 05:26:21;;;;;;;1.70;1.60;;;1.90;98.20;;;;;;5029530;28;20533;-72
2020/12/11 05:28:48;;;;;;;1.70;1.50;;;1.90;98.20;;;;;;5035595;28;20471;-72
2020/12/11 05:31:15;;;;;;;1.70;1.60;;;1.90;98.20;;;;;;5038858;28;20467;-72
2020/12/11 05:34:03;;;;;;;1.70;1.57;;;1.90;98.20;;;;;;5037538;28;20612;-71
2020/12/11 05:36:41;;;;;;;1.87;1.77;;;1.90;98.20;;;;;;5044691;28;20534;-72
2020/12/11 05:39:07;;;;;;;2.57;2.37;;;1.80;98.20;;;;;;5036034;28;21081;-72
2020/12/11 05:41:36;;;;;;;1.60;1.50;;;1.80;98.20;;;;;;5041246;28;20460;-73
2020/12/11 05:44:21;;;;;;;1.70;1.60;;;1.80;98.20;;;;;;5042222;28;20614;-72
2020/12/11 05:46:48;;;;;;;1.70;1.60;;;1.80;98.20;;;;;;5041147;28;20570;-74
2020/12/11 05:49:23;;;;;;;3.13;2.93;;;1.80;98.20;;;;;;5041972;28;20904;-71
2020/12/11 05:52:12;;;;;;;1.60;1.50;;;1.80;98.20;;;;;;5051194;28;20634;-72
2020/12/11 05:54:47;;;;;;;1.70;1.50;;;1.80;98.20;;;;;;5036274;28;20483;-71
2020/12/11 05:57:15;;;;;;;1.70;1.50;;;1.80;98.20;;;;;;5036919;28;20761;-73
2020/12/11 05:59:43;;;;;;;1.60;1.50;;;1.80;98.20;;;;;;5041437;28;20496;-72
2020/12/11 06:02:11;;;;;;;1.70;1.50;;;1.80;98.20;;;;;;5035150;28;20554;-73
2020/12/11 06:04:38;;;;;;;1.60;1.50;;;1.80;98.20;;;;;;5035358;28;21093;-73
2020/12/11 06:07:12;;;;;;;1.60;1.50;;;1.80;98.20;;;;;;5052419;28;20537;-73
2020/12/11 06:09:39;;;;;;;1.70;1.57;;;1.80;98.20;;;;;;5037086;28;20466;-72
2020/12/11 06:12:07;;;;;;;1.67;1.50;;;1.80;98.20;;;;;;5031500;28;20977;-72
2020/12/11 06:15:03;;;;;;;1.80;1.70;;;1.80;98.20;;;;;;5039034;28;20475;-71
2020/12/11 06:17:33;;;;;;;1.73;1.63;;;1.80;98.20;;;;;;5043687;28;20462;-71
2020/12/11 06:20:02;;;;;;;1.70;1.40;;;1.80;98.20;;;;;;5031037;28;20528;-72
2020/12/11 06:22:28;;;;;;;1.80;1.70;;;1.80;98.20;;;;;;5042053;28;20503;-72
2020/12/11 06:24:55;;;;;;;1.70;1.60;;;1.80;98.20;;;;;;5030535;28;20480;-72
2020/12/11 06:27:32;;;;;;;2.80;2.60;;;1.90;98.20;;;;;;5039554;28;20571;-73
2020/12/11 06:29:58;;;;;;;1.70;1.60;;;1.90;98.20;;;;;;5045713;28;21025;-71
2020/12/11 06:32:35;;;;;;;1.70;1.60;;;1.90;98.20;;;;;;5035782;28;20460;-71
2020/12/11 06:35:12;;;;;;;1.77;1.67;;;1.90;98.20;;;;;;5038832;28;20497;-71
2020/12/11 06:37:39;;;;;;;1.80;1.70;;;1.90;98.20;;;;;;5036446;28;20954;-72
2020/12/11 06:40:06;;;;;;;1.67;1.57;;;1.90;98.20;;;;;;5045705;28;20719;-72
2020/12/11 06:42:43;;;;;;;1.87;1.77;;;1.90;98.20;;;;;;5051230;28;21002;-73
2020/12/11 06:45:25;;;;;;;1.63;1.50;;;1.90;98.20;;;;;;5032785;28;20475;-71
2020/12/11 06:47:57;;;;;;;2.80;2.60;;;1.90;98.20;;;;;;5038294;28;20569;-72
2020/12/11 06:50:26;;;;;;;1.70;1.60;;;1.90;98.20;;;;;;5053427;28;20496;-73
2020/12/11 06:52:53;;;;;;;1.70;1.50;;;1.90;98.20;;;;;;5035714;28;20667;-72
2020/12/11 06:55:19;;;;;;;2.10;1.90;;;1.90;98.20;;;;;;5028455;28;20909;-72
2020/12/11 06:57:49;;;;;;;1.80;1.70;;;2.00;98.20;;;;;;5032947;28;20450;-72
2020/12/11 07:00:30;;;;;;;4.00;3.70;;;2.00;98.20;;;;;;5033838;28;20517;-71
2020/12/11 07:03:29;;;;;;;1.80;1.70;;;2.00;98.20;;;;;;5046769;28;20497;-73
2020/12/11 07:06:12;;;;;;;1.70;1.50;;;2.10;98.20;;;;;;5032709;28;20486;-73
2020/12/11 07:08:39;;;;;;;1.90;1.80;;;2.20;98.20;;;;;;5033945;28;20538;-71
2020/12/11 07:11:13;;;;;;;1.60;1.40;;;2.20;98.20;;;;;;5036567;28;20466;-72
2020/12/11 07:13:50;;;;;;;2.67;2.47;;;2.20;98.20;;;;;;5037769;28;20766;-71
2020/12/11 07:16:17;;;;;;;2.13;1.93;;;2.30;98.20;;;;;;5038601;28;20486;-73
2020/12/11 07:18:45;;;;;;;2.63;2.43;;;2.40;98.20;;;;;;5037629;28;20841;-71
2020/12/11 07:21:12;;;;;;;2.10;1.90;;;2.40;98.20;;;;;;5043159;28;20466;-74
2020/12/11 07:23:39;;;;;;;1.60;1.50;;;2.40;98.20;;;;;;5033257;28;20475;-72
2020/12/11 07:26:06;;;;;;;1.67;1.50;;;2.40;98.20;;;;;;5029403;28;20691;-72
2020/12/11 07:28:33;;;;;;;1.90;1.80;;;2.50;98.20;;;;;;5033476;28;20582;-71
2020/12/11 07:31:01;;;;;;;1.67;1.40;;;2.50;98.20;;;;;;5028441;28;20463;-72
2020/12/11 07:33:31;;;;;;;1.63;1.50;;;2.50;98.20;;;;;;5034358;28;20491;-72
2020/12/11 07:36:01;;;;;;;1.70;1.57;;;2.60;98.20;;;;;;5032725;28;20484;-73
2020/12/11 07:38:28;;;;;;;1.90;1.80;;;2.60;98.20;;;;;;5034633;28;21035;-73
2020/12/11 07:40:55;;;;;;;1.70;1.50;;;2.60;98.20;;;;;;5031512;28;20463;-73
2020/12/11 07:43:22;;;;;;;2.00;1.87;;;2.60;98.20;;;;;;5033697;28;20527;-73
2020/12/11 07:45:49;;;;;;;2.80;2.60;;;2.70;98.20;;;;;;5031277;28;20490;-71
2020/12/11 07:48:16;;;;;;;2.83;2.63;;;2.70;98.20;;;;;;5033031;28;20519;-71
2020/12/11 07:50:43;;;;;;;1.80;1.70;;;2.70;98.20;;;;;;5039169;28;20480;-74
2020/12/11 07:53:11;;;;;;;1.63;1.50;;;2.70;98.20;;;;;;5034363;28;20469;-72
2020/12/11 07:55:38;;;;;;;1.60;1.40;;;2.70;98.20;;;;;;5030623;28;20519;-72
2020/12/11 07:58:05;;;;;;;2.20;2.03;;;2.80;98.20;;;;;;5033549;28;20539;-71
2020/12/11 08:00:36;;;;;;;1.60;1.40;;;2.80;98.20;;;;;;5035418;28;20573;-72
2020/12/11 08:03:06;;;;;;;1.60;1.47;;;2.80;98.20;;;;;;5036483;28;20932;-72
2020/12/11 08:05:37;;;;;;;1.70;1.50;;;2.80;98.20;;;;;;5040538;28;20479;-72
2020/12/11 08:08:04;;;;;;;1.70;1.50;;;2.90;98.20;;;;;;5048347;28;20508;-73
2020/12/11 08:10:40;;;;;;;1.70;1.60;;;2.90;98.20;;;;;;5047505;28;20460;-72
2020/12/11 08:13:13;;;;;;;1.60;1.50;;;2.90;98.20;;;;;;5037209;28;20464;-72
2020/12/11 08:15:40;;;;;;;1.70;1.60;;;3.00;98.20;;;;;;5048963;28;20510;-72
2020/12/11 08:18:22;;;;;;;1.60;1.40;;;3.00;98.20;;;;;;5037733;28;20464;-73
2020/12/11 08:20:54;;;;;;;1.73;1.63;;;3.00;98.20;;;;;;5045273;28;20496;-72
2020/12/11 08:23:28;;;;;;;1.67;1.50;;;3.00;98.20;;;;;;5030664;28;20495;-72
2020/12/11 08:26:06;;;;;;;1.77;1.67;;;3.10;98.20;;;;;;5046753;28;20760;-72
2020/12/11 08:28:32;;;;;;;3.50;3.30;;;3.10;98.20;;;;;;5038030;28;20482;-72
2020/12/11 08:31:15;;;;;;;1.70;1.60;;;3.10;98.20;;;;;;5037049;28;20491;-72
2020/12/11 08:33:42;;;;;;;1.83;1.67;;;3.10;98.20;;;;;;5036759;28;20506;-72
2020/12/11 08:36:18;;;;;;;2.07;1.87;;;3.10;98.20;;;;;;5042727;28;20483;-72
2020/12/11 08:39:04;;;;;;;1.63;1.40;;;3.20;98.20;;;;;;5053384;28;20554;-72
2020/12/11 08:41:33;;;;;;;1.70;1.50;;;3.20;98.20;;;;;;5037191;28;20465;-73
2020/12/11 08:44:01;;;;;;;1.60;1.40;;;3.20;98.20;;;;;;5047542;28;20546;-72
2020/12/11 08:46:33;;;;;;;1.63;1.37;;;3.20;98.20;;;;;;5032675;28;20462;-72
2020/12/11 08:49:07;;;;;;;1.67;1.40;;;3.30;98.20;;;;;;5049041;28;21227;-75
2020/12/11 08:51:33;;;;;;;1.70;1.50;;;3.30;98.20;;;;;;5046403;28;20466;-74
2020/12/11 08:54:02;;;;;;;1.60;1.40;;;3.30;98.20;;;;;;5044516;28;21173;-74
2020/12/11 08:56:28;;;;;;;1.70;1.57;;;3.40;98.20;;;;;;5038551;28;20559;-71
2020/12/11 08:58:56;;;;;;;1.67;1.53;;;3.40;98.20;;;;;;5035322;28;20839;-73
2020/12/11 09:01:22;;;;;;;1.63;1.47;;;3.40;98.20;;;;;;5033484;28;20456;-72
2020/12/11 09:03:49;;;;;;;1.80;1.70;;;3.50;98.20;;;;;;5038442;28;20787;-72
2020/12/11 09:06:15;;;;;;;1.70;1.50;;;3.50;98.20;;;;;;5034514;28;20522;-73
2020/12/11 09:08:42;;;;;;;1.70;1.57;;;3.50;98.20;;;;;;5034318;28;20526;-72
2020/12/11 09:11:08;;;;;;;1.73;1.63;;;3.50;98.20;;;;;;5034935;28;20460;-74
2020/12/11 09:13:35;;;;;;;1.80;1.70;;;3.50;98.20;;;;;;5036836;28;20491;-74
2020/12/11 09:16:02;;;;;;;1.70;1.50;;;3.60;98.20;;;;;;5032637;28;20483;-73
2020/12/11 09:18:28;;;;;;;1.70;1.50;;;3.60;98.20;;;;;;5036098;28;20450;-73
2020/12/11 09:20:56;;;;;;;1.67;1.50;;;3.60;98.20;;;;;;5045930;28;20553;-73
2020/12/11 09:23:22;;;;;;;1.80;1.70;;;3.60;98.20;;;;;;5034557;28;20495;-74
2020/12/11 09:25:48;;;;;;;2.47;2.23;;;3.70;98.20;;;;;;5041244;28;20510;-74
2020/12/11 09:28:18;;;;;;;1.70;1.60;;;3.70;98.20;;;;;;5036078;28;20857;-73
2020/12/11 09:30:46;;;;;;;1.70;1.60;;;3.70;98.20;;;;;;5035185;28;20835;-74
2020/12/11 09:33:16;;;;;;;1.70;1.50;;;3.70;98.20;;;;;;5034332;28;20459;-74
2020/12/11 09:35:43;;;;;;;1.80;1.70;;;3.70;98.20;;;;;;5036079;28;21184;-73
2020/12/11 09:38:10;;;;;;;1.60;1.50;;;3.80;98.20;;;;;;5032846;28;20503;-73
2020/12/11 09:40:43;;;;;;;2.70;2.50;;;3.80;98.20;;;;;;5050863;28;20467;-73
2020/12/11 09:46:05;;;;;;;1.67;1.40;;;3.80;98.20;;;;;;5037060;28;20475;-73
2020/12/11 09:48:38;;;;;;;1.73;1.63;;;3.90;98.20;;;;;;5039674;28;20489;-72
2020/12/11 09:51:19;;;;;;;1.60;1.40;;;3.90;98.20;;;;;;5052377;28;20453;-74
2020/12/11 09:56:29;;;;;;;1.60;1.30;;;4.00;98.20;;;;;;5041453;28;21005;-72
2020/12/11 09:58:59;;;;;;;1.60;1.40;;;4.00;98.20;;;;;;5044622;28;20998;-73
2020/12/11 10:01:27;;;;;;;1.60;1.40;;;4.00;98.20;;;;;;5044236;28;20513;-74
2020/12/11 10:03:54;;;;;;;1.60;1.40;;;4.00;98.20;;;;;;5039256;28;20568;-72
2020/12/11 10:06:25;;;;;;;1.60;1.50;;;4.10;98.20;;;;;;5037768;28;21020;-74
2020/12/11 10:08:51;;;;;;;1.63;1.40;;;4.10;98.20;;;;;;5040528;28;20498;-74
2020/12/11 10:11:19;;;;;;;1.60;1.40;;;4.10;98.20;;;;;;5038643;28;20968;-74
2020/12/11 10:13:47;;;;;;;1.67;1.43;;;4.10;98.20;;;;;;5036948;28;20686;-73
2020/12/11 10:16:16;;;;;;;1.60;1.40;;;4.10;98.20;;;;;;5039150;28;21164;-74
2020/12/11 10:18:43;;;;;;;2.53;2.33;;;4.20;98.20;;;;;;5039017;28;20462;-73
2020/12/11 10:21:11;;;;;;;1.60;1.40;;;4.20;98.20;;;;;;5034282;28;20459;-73
2020/12/11 10:23:38;;;;;;;1.77;1.67;;;4.30;98.20;;;;;;5036397;28;20521;-73
2020/12/11 10:26:04;;;;;;;1.60;1.40;;;4.30;98.20;;;;;;5035096;28;20519;-72
2020/12/11 10:28:31;;;;;;;1.60;1.40;;;4.30;98.20;;;;;;5037234;28;20524;-74
2020/12/11 10:30:58;;;;;;;2.57;2.37;;;4.40;98.20;;;;;;5037767;28;20711;-73
2020/12/11 10:33:25;;;;;;;1.70;1.60;;;4.40;98.20;;;;;;5035825;28;20467;-74
2020/12/11 10:35:51;;;;;;;1.60;1.30;;;4.50;98.20;;;;;;5036930;28;20479;-74
2020/12/11 10:38:19;;;;;;;1.70;1.50;;;4.50;98.20;;;;;;5036106;28;21231;-73
2020/12/11 10:40:46;;;;;;;1.60;1.40;;;4.60;98.20;;;;;;5038171;28;20463;-73
2020/12/11 10:43:13;;;;;;;1.70;1.40;;;4.60;98.20;;;;;;5032667;28;20458;-73
2020/12/11 10:45:39;;;;;;;1.60;1.30;;;4.60;98.20;;;;;;5042076;28;20570;-73
2020/12/11 10:48:06;;;;;;;1.60;1.40;;;4.60;98.20;;;;;;5038777;28;21025;-73
2020/12/11 10:50:32;;;;;;;1.70;1.50;;;4.60;98.20;;;;;;5038920;28;21115;-72
2020/12/11 10:52:58;;;;;;;1.60;1.30;;;4.60;98.20;;;;;;5035067;28;20467;-74
2020/12/11 10:55:26;;;;;;;1.67;1.57;;;4.60;98.20;;;;;;5032905;28;20573;-73
2020/12/11 10:57:53;;;;;;;1.60;1.50;;;4.60;98.20;;;;;;5029634;28;20814;-73
2020/12/11 11:00:19;;;;;;;1.60;1.40;;;4.60;98.20;;;;;;5036385;28;20495;-74
2020/12/11 11:02:46;;;;;;;1.60;1.40;;;4.60;98.20;;;;;;5036284;28;20487;-74
2020/12/11 11:05:13;;;;;;;1.60;1.30;;;4.60;98.20;;;;;;5038531;28;20565;-73
2020/12/11 11:07:40;;;;;;;1.60;1.30;;;4.60;98.20;;;;;;5040269;28;20479;-74
2020/12/11 11:10:16;;;;;;;1.60;1.40;;;4.70;98.20;;;;;;5060745;28;20442;-74
2020/12/11 11:12:47;;;;;;;1.60;1.30;;;4.70;98.20;;;;;;5043013;28;20479;-73
2020/12/11 11:18:13;;;;;;;1.63;1.50;;;4.80;98.20;;;;;;5036141;28;20444;-73
2020/12/11 11:23:35;;;;;;;1.60;1.50;;;4.80;98.20;;;;;;5026197;28;20451;-74
2020/12/11 11:26:15;;;;;;;1.60;1.37;;;4.90;98.20;;;;;;5037764;28;20510;-73
2020/12/11 11:28:43;;;;;;;1.63;1.50;;;4.90;98.20;;;;;;5034515;28;20482;-74
2020/12/11 11:31:11;;;;;;;1.60;1.40;;;4.90;98.20;;;;;;5039083;28;20474;-74
2020/12/11 11:33:37;;;;;;;1.60;1.30;;;4.90;98.20;;;;;;5041656;28;20450;-74
2020/12/11 11:36:04;;;;;;;1.83;1.73;;;4.90;98.20;;;;;;5047053;28;20499;-74
2020/12/11 11:38:30;;;;;;;1.70;1.60;;;4.90;98.20;;;;;;5037909;28;20509;-74
2020/12/11 11:40:56;;;;;;;1.63;1.43;;;4.90;98.20;;;;;;5038172;28;20454;-74
2020/12/11 11:43:32;;;;;;;1.60;1.47;;;4.90;98.20;;;;;;5036528;28;20467;-75
2020/12/11 11:45:59;;;;;;;1.60;1.30;;;4.80;98.20;;;;;;5032695;28;20486;-74
2020/12/11 11:48:26;;;;;;;1.60;1.50;;;4.80;98.20;;;;;;5041621;28;20478;-75
2020/12/11 11:50:57;;;;;;;1.83;1.70;;;4.80;98.20;;;;;;5049034;28;20492;-73
2020/12/11 11:53:23;;;;;;;1.60;1.30;;;4.80;98.20;;;;;;5043215;28;20666;-74
2020/12/11 11:55:53;;;;;;;1.60;1.37;;;4.80;98.20;;;;;;5035439;28;20488;-74
2020/12/11 11:58:20;;;;;;;2.03;1.80;;;4.80;98.20;;;;;;5039431;28;21103;-74
2020/12/11 12:00:47;;;;;;;1.60;1.30;;;4.90;98.20;;;;;;5033519;28;20452;-74
2020/12/11 12:03:14;;;;;;;1.60;1.30;;;5.00;98.20;;;;;;5041889;28;20528;-74
2020/12/11 12:05:42;;;;;;;1.60;1.50;;;5.00;98.20;;;;;;5039805;28;20487;-75
2020/12/11 12:08:08;;;;;;;1.60;1.40;;;5.00;98.20;;;;;;5034787;28;20903;-74
2020/12/11 12:10:35;;;;;;;1.60;1.40;;;5.10;98.20;;;;;;5036742;28;20470;-75
2020/12/11 12:13:02;;;;;;;1.60;1.30;;;5.10;98.20;;;;;;5034282;28;20486;-75
2020/12/11 12:15:28;;;;;;;1.60;1.40;;;5.10;98.20;;;;;;5032562;28;20536;-73
2020/12/11 12:17:59;;;;;;;1.60;1.40;;;5.20;98.20;;;;;;5035446;28;20947;-74
2020/12/11 12:20:36;;;;;;;2.53;2.33;;;5.10;98.20;;;;;;5050644;28;20466;-74
2020/12/11 12:28:52;;;;;;;1.60;1.30;;;5.20;98.20;;;;;;5040596;28;21151;-75
2020/12/11 12:31:23;;;;;;;2.37;2.17;;;5.30;98.20;;;;;;5034152;28;20464;-72
2020/12/11 12:34:17;;;;;;;1.60;1.30;;;5.20;98.20;;;;;;5033534;28;20787;-74
2020/12/11 12:37:12;;;;;;;1.70;1.60;;;5.30;98.20;;;;;;5039450;28;20512;-73
2020/12/11 12:45:21;;;;;;;1.70;1.50;;;5.40;98.20;;;;;;4965433;28;21407;-74
2020/12/11 12:47:47;;;;;;;1.60;1.30;;;5.40;98.20;;;;;;5023073;28;20498;-73
2020/12/11 12:50:14;;;;;;;1.80;1.60;;;5.40;98.20;;;;;;5052412;28;20477;-74
2020/12/11 12:52:41;;;;;;;1.60;1.40;;;5.40;98.20;;;;;;5040865;28;20479;-73
2020/12/11 12:55:08;;;;;;;1.60;1.30;;;5.50;98.20;;;;;;5036365;28;20573;-74
2020/12/11 12:57:38;;;;;;;1.60;1.30;;;5.40;98.20;;;;;;5047723;28;20462;-74
2020/12/11 13:00:15;;;;;;;1.60;1.40;;;5.50;98.20;;;;;;5059056;28;20458;-75
2020/12/11 13:05:32;;;;;;;1.60;1.30;;;5.60;98.20;;;;;;5040492;28;20463;-75
2020/12/11 13:08:02;;;;;;;4.23;3.83;;;5.60;98.20;;;;;;5038333;28;20494;-75
2020/12/11 13:10:29;;;;;;;1.60;1.40;;;5.70;98.20;;;;;;5042035;28;20536;-75
2020/12/11 13:12:55;;;;;;;1.70;1.47;;;5.80;98.20;;;;;;5037493;28;20488;-74
2020/12/11 13:15:22;;;;;;;1.60;1.40;;;5.80;98.20;;;;;;5041210;28;20474;-74
2020/12/11 13:17:48;;;;;;;1.70;1.50;;;5.90;98.20;;;;;;5038660;28;20452;-74
2020/12/11 13:20:22;;;;;;;1.60;1.33;;;5.90;98.20;;;;;;5050677;28;20460;-74
2020/12/11 13:28:20;;;;;;;1.60;1.33;;;6.10;98.20;;;;;;5018226;28;20581;-74
2020/12/11 13:30:47;;;;;;;1.60;1.20;;;6.10;98.20;;;;;;5039563;28;20457;-74
2020/12/11 13:33:13;;;;;;;1.60;1.30;;;6.10;98.20;;;;;;5039303;28;20470;-73
2020/12/11 13:35:40;;;;;;;1.60;1.40;;;6.10;98.20;;;;;;5040367;28;20526;-75
2020/12/11 13:38:06;;;;;;;1.60;1.30;;;6.10;98.20;;;;;;5036084;28;20521;-74